Time;durP1;ratioP1;P1;durP2;ratioP2;P2;SDS_P1;SDS_P2;PMS_P1;PMS_P2;Temp;Humidity;BMP_temperature;BMP_pressure;BME280_temperature;BME280_humidity;BME280_pressure;Samples;Min_cycle;Max_cycle;Signal;HPM_P1;HPM_P2
2022/06/17 00:01:38;;;;;;;4.50;3.70;;;;;;;15.63;92.67;101344.69;8323172;28;20041;-64
2022/06/17 00:05:38;;;;;;;8.50;4.60;;;;;;;15.50;94.96;101342.31;8324596;28;20307;-64
2022/06/17 00:09:40;;;;;;;8.77;4.97;;;;;;;15.59;94.65;101338.69;8325324;28;20037;-64
2022/06/17 00:13:40;;;;;;;7.43;3.85;;;;;;;15.54;95.22;101327.41;8324405;28;20068;-64
2022/06/17 00:17:58;;;;;;;9.32;4.45;;;;;;;15.67;93.90;101330.59;8324579;28;20053;-64
2022/06/17 00:21:58;;;;;;;6.95;4.03;;;;;;;15.76;92.77;101338.88;8321355;28;20119;-64
2022/06/17 00:25:59;;;;;;;7.47;4.50;;;;;;;15.77;93.15;101334.13;8315870;28;20042;-64
2022/06/17 00:29:59;;;;;;;7.93;5.00;;;;;;;15.64;93.20;101328.19;8321660;28;20037;-64
2022/06/17 00:33:59;;;;;;;10.70;5.57;;;;;;;15.58;93.52;101323.34;8325370;28;20064;-64
2022/06/17 00:38:02;;;;;;;7.67;4.37;;;;;;;15.55;93.63;101325.50;8325522;28;20307;-64
2022/06/17 00:42:08;;;;;;;9.27;5.03;;;;;;;15.45;94.26;101324.72;8314435;28;20634;-64
2022/06/17 00:50:50;;;;;;;9.63;5.30;;;;;;;15.27;94.68;101324.63;8407929;27;20512;-62
2022/06/17 00:55:00;;;;;;;6.75;4.93;;;;;;;15.21;95.16;101318.91;8377109;28;20051;-62
2022/06/17 00:59:08;;;;;;;9.10;5.72;;;;;;;15.17;95.34;101334.72;8367171;27;20393;-62
2022/06/17 01:03:15;;;;;;;11.82;5.65;;;;;;;15.13;95.84;101337.91;8354653;28;20566;-62
2022/06/17 01:07:23;;;;;;;13.27;5.95;;;;;;;15.02;95.49;101336.22;8376229;28;20500;-62
2022/06/17 01:11:27;;;;;;;9.82;5.22;;;;;;;14.83;96.45;101335.44;8380952;28;20044;-62
2022/06/17 01:15:31;;;;;;;9.17;5.33;;;;;;;14.80;96.67;101331.16;8349545;28;20037;-62
2022/06/17 01:19:40;;;;;;;7.47;5.25;;;;;;;14.83;95.91;101340.88;8382980;28;20039;-62
2022/06/17 01:23:41;;;;;;;10.82;5.72;;;;;;;14.73;97.63;101340.88;8360821;28;20052;-62
2022/06/17 01:27:47;;;;;;;12.20;5.90;;;;;;;14.70;97.13;101352.06;8365714;28;20132;-62
2022/06/17 01:31:51;;;;;;;8.52;5.65;;;;;;;14.63;97.29;101339.19;8376474;28;20063;-62
2022/06/17 01:35:56;;;;;;;12.38;5.35;;;;;;;14.57;97.91;101354.25;8372560;28;20033;-62
2022/06/17 01:39:57;;;;;;;12.75;5.72;;;;;;;14.38;98.60;101348.84;8383259;28;20040;-62
2022/06/17 01:44:20;;;;;;;8.50;5.68;;;;;;;14.30;99.40;101350.56;8376368;28;20033;-63
2022/06/17 01:48:24;;;;;;;7.25;5.40;;;;;;;14.28;99.51;101355.28;8378595;27;20044;-63
2022/06/17 01:52:32;;;;;;;16.57;6.03;;;;;;;14.12;100.00;101360.41;8363325;27;20111;-63
2022/06/17 01:56:35;;;;;;;8.93;6.13;;;;;;;14.17;100.00;101367.13;8378305;28;20352;-63
2022/06/17 02:00:36;;;;;;;9.57;5.22;;;;;;;14.29;100.00;101368.75;8367453;28;20040;-63
2022/06/17 02:04:43;;;;;;;9.85;5.70;;;;;;;14.37;99.35;101368.91;8359770;28;20112;-63
2022/06/17 02:08:44;;;;;;;7.32;6.05;;;;;;;14.35;100.00;101362.72;8354838;28;20041;-63
2022/06/17 02:12:44;;;;;;;7.60;5.75;;;;;;;14.34;100.00;101352.84;8353656;28;20049;-63
2022/06/17 02:16:48;;;;;;;8.25;5.63;;;;;;;14.27;100.00;101365.28;8326565;28;20041;-63
2022/06/17 02:20:55;;;;;;;10.25;5.72;;;;;;;14.21;100.00;101367.72;8358410;28;20466;-63
2022/06/17 02:24:59;;;;;;;19.23;6.35;;;;;;;14.17;100.00;101364.41;8359713;28;20060;-63
2022/06/17 02:29:07;;;;;;;7.03;5.32;;;;;;;14.12;100.00;101363.13;8343073;28;20291;-63
2022/06/17 02:33:09;;;;;;;12.07;5.90;;;;;;;14.00;100.00;101351.50;8355691;28;20068;-63
2022/06/17 02:37:13;;;;;;;5.68;5.15;;;;;;;13.96;100.00;101360.97;8359335;28;20536;-63
2022/06/17 02:41:19;;;;;;;7.77;5.93;;;;;;;13.81;100.00;101367.81;8350897;28;20037;-63
2022/06/17 02:45:23;;;;;;;13.73;6.13;;;;;;;13.68;100.00;101378.09;8350152;28;20043;-63
2022/06/17 02:49:28;;;;;;;10.57;6.25;;;;;;;13.67;100.00;101384.53;8347387;28;20496;-63
2022/06/17 02:53:34;;;;;;;8.55;5.80;;;;;;;13.68;100.00;101380.81;8352423;28;20037;-63
2022/06/17 02:57:34;;;;;;;12.90;6.63;;;;;;;13.65;100.00;101383.81;8357758;28;20033;-63
2022/06/17 03:01:37;;;;;;;8.73;5.78;;;;;;;13.55;100.00;101375.59;8336421;28;20065;-63
2022/06/17 03:05:42;;;;;;;6.47;5.45;;;;;;;13.45;100.00;101376.59;8345141;28;20033;-63
2022/06/17 03:09:43;;;;;;;11.80;5.82;;;;;;;13.39;100.00;101383.44;8351941;28;20047;-63
2022/06/17 03:13:57;;;;;;;7.22;5.47;;;;;;;13.51;100.00;101389.63;8349246;28;20045;-63
2022/06/17 03:17:58;;;;;;;7.57;5.22;;;;;;;13.52;100.00;101383.19;8389285;28;20036;-62
2022/06/17 03:21:58;;;;;;;7.50;5.95;;;;;;;13.52;100.00;101375.91;8355007;28;20040;-62
2022/06/17 03:26:09;;;;;;;7.93;5.43;;;;;;;13.55;100.00;101372.06;8357960;28;20037;-62
2022/06/17 03:30:13;;;;;;;8.60;5.95;;;;;;;13.52;100.00;101375.06;8345864;28;20042;-62
2022/06/17 03:34:20;;;;;;;19.33;6.82;;;;;;;13.60;100.00;101383.34;8341560;28;20040;-62
2022/06/17 03:38:45;;;;;;;10.65;7.10;;;;;;;13.66;100.00;101380.06;8357873;28;20047;-62
2022/06/17 03:43:04;;;;;;;10.98;6.10;;;;;;;13.63;100.00;101380.34;8357176;28;20090;-62
2022/06/17 03:47:16;;;;;;;9.63;6.00;;;;;;;13.57;100.00;101387.22;8355424;28;20486;-62
2022/06/17 03:51:21;;;;;;;11.93;6.47;;;;;;;13.62;100.00;101384.06;8342155;28;20036;-63
2022/06/17 03:55:22;;;;;;;17.30;7.32;;;;;;;13.64;100.00;101392.97;8352453;28;20562;-62
2022/06/17 03:59:27;;;;;;;16.80;6.30;;;;;;;13.73;100.00;101400.28;8354219;28;20025;-62
2022/06/17 04:03:33;;;;;;;15.32;7.25;;;;;;;13.87;100.00;101401.75;8344035;28;20064;-62
2022/06/17 04:07:34;;;;;;;11.52;6.85;;;;;;;14.01;100.00;101395.88;8344408;28;20405;-62
2022/06/17 04:11:39;;;;;;;12.13;6.47;;;;;;;14.16;100.00;101394.47;8344685;28;20036;-62
2022/06/17 04:16:01;;;;;;;11.77;6.43;;;;;;;14.42;99.91;101399.22;8353952;28;20029;-62
2022/06/17 04:20:32;;;;;;;13.73;6.13;;;;;;;14.68;98.04;101402.22;8343731;28;20156;-62
2022/06/17 04:24:33;;;;;;;10.10;5.65;;;;;;;14.69;96.61;101385.75;8326951;28;20033;-62
2022/06/17 04:28:39;;;;;;;11.68;6.03;;;;;;;14.77;97.18;101396.78;8349431;28;20038;-62
2022/06/17 04:32:40;;;;;;;7.78;5.80;;;;;;;14.94;95.66;101398.72;8349887;28;20060;-62
2022/06/17 04:36:45;;;;;;;8.43;6.30;;;;;;;15.29;94.26;101398.91;8352145;28;20124;-62
2022/06/17 04:40:50;;;;;;;14.10;6.07;;;;;;;15.31;93.92;101415.97;8346782;28;20099;-62
2022/06/17 04:44:51;;;;;;;;;;;;;;;15.20;94.00;101420.75;8343909;28;20981;-62
2022/06/17 04:48:57;;;;;;;10.38;6.10;;;;;;;15.34;94.15;101423.84;8351609;28;19917;-62
2022/06/17 04:52:58;;;;;;;7.00;5.72;;;;;;;15.55;93.07;101424.50;8342044;28;20132;-62
2022/06/17 04:57:02;;;;;;;9.52;5.90;;;;;;;15.81;92.53;101426.53;8349486;28;20064;-62
2022/06/17 05:01:02;;;;;;;8.07;5.82;;;;;;;15.91;91.26;101427.31;8337376;28;20120;-62
2022/06/17 05:05:12;;;;;;;6.95;4.95;;;;;;;16.31;90.58;101431.34;8329839;28;20033;-62
2022/06/17 05:13:53;;;;;;;7.10;5.55;;;;;;;16.83;88.63;101415.97;8401295;27;20385;-62
2022/06/17 05:17:55;;;;;;;7.53;5.40;;;;;;;17.13;87.60;101410.06;8339417;28;20040;-62
2022/06/17 05:21:56;;;;;;;5.88;5.20;;;;;;;17.09;86.51;101405.94;8362616;28;20040;-62
2022/06/17 05:25:57;;;;;;;5.53;4.90;;;;;;;17.41;86.84;101412.44;8379004;28;20047;-63
2022/06/17 05:29:57;;;;;;;9.63;5.93;;;;;;;17.44;87.50;101411.28;8379965;28;20033;-63
2022/06/17 05:33:58;;;;;;;6.90;4.55;;;;;;;17.44;86.89;101405.81;8351781;28;20300;-63
2022/06/17 05:37:58;;;;;;;7.53;4.70;;;;;;;17.44;87.24;101416.75;8363130;28;20048;-63
2022/06/17 05:41:59;;;;;;;8.55;4.47;;;;;;;17.85;87.72;101417.81;8377526;28;20636;-63
2022/06/17 05:46:00;;;;;;;5.80;4.13;;;;;;;18.20;85.82;101414.84;8378769;28;20060;-63
2022/06/17 05:50:00;;;;;;;9.32;4.30;;;;;;;18.03;86.46;101397.53;8377456;28;20037;-63
2022/06/17 05:54:01;;;;;;;12.70;4.95;;;;;;;18.17;86.38;101404.25;8345912;28;20041;-63
2022/06/17 05:58:04;;;;;;;13.68;4.78;;;;;;;18.44;86.76;101395.72;8343969;28;20033;-63
2022/06/17 06:02:05;;;;;;;8.98;4.03;;;;;;;18.43;87.09;101394.91;8346104;28;20364;-63
2022/06/17 06:06:05;;;;;;;8.10;4.43;;;;;;;18.57;83.62;101396.94;8347393;28;20080;-63
2022/06/17 06:10:07;;;;;;;11.32;4.13;;;;;;;18.71;83.32;101404.50;8347480;28;20037;-63
2022/06/17 06:14:07;;;;;;;6.75;4.25;;;;;;;18.56;83.33;101406.19;8345995;28;20399;-63
2022/06/17 06:18:11;;;;;;;4.75;3.92;;;;;;;18.52;84.51;101385.66;8348237;28;20119;-63
2022/06/17 06:22:11;;;;;;;6.25;4.32;;;;;;;18.61;83.66;101381.91;8348154;28;20490;-63
2022/06/17 06:26:14;;;;;;;6.20;3.97;;;;;;;19.39;83.81;101378.34;8333045;28;20513;-63
2022/06/17 06:30:20;;;;;;;8.02;4.50;;;;;;;19.41;80.93;101375.44;8334590;28;20280;-63
2022/06/17 06:34:21;;;;;;;5.15;3.90;;;;;;;19.80;78.98;101369.94;8332741;28;20041;-63
2022/06/17 06:38:22;;;;;;;6.38;4.00;;;;;;;20.06;78.05;101376.00;8322311;28;20053;-63
2022/06/17 06:42:22;;;;;;;5.78;3.80;;;;;;;20.16;75.82;101371.16;8322687;28;20037;-63
2022/06/17 06:46:24;;;;;;;10.00;4.45;;;;;;;20.46;76.59;101360.09;8335413;28;20105;-63
2022/06/17 06:50:29;;;;;;;6.60;3.42;;;;;;;20.71;74.29;101369.00;8325267;28;20364;-63
2022/06/17 06:54:29;;;;;;;5.22;3.60;;;;;;;21.29;72.65;101375.47;8329057;28;20034;-63
2022/06/17 06:58:30;;;;;;;7.47;3.73;;;;;;;21.87;71.68;101377.38;8324199;28;20041;-63
2022/06/17 07:02:30;;;;;;;6.65;2.75;;;;;;;22.47;67.39;101374.22;8324770;28;20348;-63
2022/06/17 07:06:35;;;;;;;5.78;2.50;;;;;;;22.80;65.68;101380.94;8325543;28;20253;-63
2022/06/17 07:10:36;;;;;;;6.10;2.58;;;;;;;22.93;64.19;101381.91;8324576;28;20099;-63
2022/06/17 07:14:36;;;;;;;5.45;2.33;;;;;;;22.94;65.08;101388.28;8337295;28;20040;-63
2022/06/17 07:18:38;;;;;;;10.50;2.47;;;;;;;23.21;63.41;101363.44;8325516;28;20037;-63
2022/06/17 07:22:38;;;;;;;4.32;2.10;;;;;;;22.89;63.32;101360.44;8340709;28;20045;-63
2022/06/17 07:26:38;;;;;;;3.63;2.30;;;;;;;22.51;62.85;101365.41;8320078;28;20041;-63
2022/06/17 07:30:39;;;;;;;5.07;2.17;;;;;;;22.84;64.29;101350.00;8317367;28;20375;-63
2022/06/17 07:34:39;;;;;;;3.33;2.20;;;;;;;23.54;62.87;101357.31;8332807;28;20063;-63
2022/06/17 07:39:56;;;;;;;5.70;2.33;;;;;;;23.30;62.44;101355.91;8343217;28;20330;-63
2022/06/17 07:43:01;;;;;;;4.65;2.17;;;;;;;23.50;62.54;101367.03;8348653;28;20869;-63
2022/06/17 07:47:03;;;;;;;6.82;1.90;;;;;;;23.70;60.84;101379.94;8339201;28;20029;-63
2022/06/17 07:51:05;;;;;;;3.58;1.80;;;;;;;24.21;60.95;101380.38;8328447;28;20478;-63
2022/06/17 07:55:07;;;;;;;7.15;1.80;;;;;;;24.71;59.47;101396.47;8339486;28;20425;-64
2022/06/17 07:59:07;;;;;;;6.40;1.70;;;;;;;24.49;58.70;101392.97;8312892;28;20204;-63
2022/06/17 08:03:09;;;;;;;4.40;1.77;;;;;;;24.20;59.35;101390.56;8314540;28;20549;-63
2022/06/17 08:07:10;;;;;;;4.90;2.25;;;;;;;23.93;59.50;101396.16;8314914;28;20045;-63
2022/06/17 08:11:11;;;;;;;6.88;1.75;;;;;;;24.22;59.53;101404.19;8313741;28;20052;-63
2022/06/17 08:15:12;;;;;;;2.70;1.75;;;;;;;24.31;59.76;101392.72;8330611;28;20053;-63
2022/06/17 08:19:13;;;;;;;3.92;2.45;;;;;;;24.41;59.93;101389.56;8332929;28;20048;-63
2022/06/17 08:23:15;;;;;;;3.58;1.88;;;;;;;24.62;58.92;101375.56;8337351;28;20603;-63
2022/06/17 08:27:15;;;;;;;6.95;1.88;;;;;;;24.83;56.98;101378.16;8324204;28;20541;-63
2022/06/17 08:31:16;;;;;;;6.05;1.70;;;;;;;24.85;58.35;101367.72;8316507;28;20418;-63
2022/06/17 08:35:19;;;;;;;4.63;1.50;;;;;;;25.39;56.27;101362.81;8318750;28;20045;-63
2022/06/17 08:39:20;;;;;;;2.58;1.65;;;;;;;25.10;57.29;101362.41;8328897;28;20276;-63
2022/06/17 08:44:00;;;;;;;2.95;1.83;;;;;;;25.37;57.13;101359.38;8312888;28;20041;-63
2022/06/17 08:48:19;;;;;;;6.78;1.95;;;;;;;25.27;56.61;101342.34;8313827;28;20040;-63
2022/06/17 08:57:01;;;;;;;5.80;1.88;;;;;;;26.29;54.83;101341.34;8311671;27;20389;-63
2022/06/17 09:01:13;;;;;;;8.30;1.80;;;;;;;25.94;51.60;101347.47;8299456;28;20045;-63
2022/06/17 09:05:33;;;;;;;5.50;1.70;;;;;;;25.68;52.11;101340.13;8301601;28;20045;-63
2022/06/17 09:10:00;;;;;;;4.00;1.38;;;;;;;26.02;51.25;101342.59;8294659;28;20044;-63
2022/06/17 09:14:28;;;;;;;3.20;1.27;;;;;;;26.24;52.11;101345.84;8302962;28;20080;-63
2022/06/17 09:18:36;;;;;;;4.38;1.35;;;;;;;26.19;52.31;101337.34;8335743;28;20045;-63
2022/06/17 09:22:43;;;;;;;4.72;1.60;;;;;;;26.06;52.78;101332.75;8334819;28;20036;-63
2022/06/17 09:27:02;;;;;;;7.95;1.55;;;;;;;26.26;50.54;101327.91;8335996;28;20044;-63
2022/06/17 09:31:13;;;;;;;5.68;1.27;;;;;;;26.67;50.15;101319.97;8335127;28;20645;-63
2022/06/17 09:35:24;;;;;;;4.53;1.25;;;;;;;26.86;51.04;101318.09;8326753;28;20387;-63
2022/06/17 09:40:02;;;;;;;1.85;1.38;;;;;;;27.22;49.77;101325.63;8339462;28;20041;-63
2022/06/17 09:44:10;;;;;;;3.58;1.50;;;;;;;27.07;50.25;101330.72;8340120;28;20033;-63
2022/06/17 09:48:16;;;;;;;3.10;1.40;;;;;;;26.70;50.51;101322.31;8339607;28;20041;-63
2022/06/17 09:52:23;;;;;;;3.50;1.42;;;;;;;27.18;50.87;101319.72;8340019;28;20619;-63
2022/06/17 09:56:49;;;;;;;4.00;0.90;;;;;;;27.52;47.81;101308.03;8340027;28;20485;-63
2022/06/17 10:00:55;;;;;;;3.47;1.02;;;;;;;28.05;45.83;101300.72;8339728;28;20331;-63
2022/06/17 10:04:58;;;;;;;2.92;1.00;;;;;;;28.47;44.53;101301.63;8334292;28;20057;-63
2022/06/17 10:13:59;;;;;;;2.35;1.30;;;;;;;29.72;44.02;101296.31;8393500;27;20816;-63
2022/06/17 10:22:44;;;;;;;4.93;0.90;;;;;;;31.59;39.78;101298.50;8389739;27;20361;-63
2022/06/17 10:27:00;;;;;;;5.97;1.45;;;;;;;32.36;39.79;101288.84;8346941;28;20535;-63
2022/06/17 10:31:19;;;;;;;4.93;1.30;;;;;;;31.98;41.25;101292.59;8370025;28;20032;-63
2022/06/17 10:35:31;;;;;;;0.95;0.70;;;;;;;32.43;39.97;101294.19;8374064;28;20122;-63
2022/06/17 10:39:34;;;;;;;3.65;0.90;;;;;;;32.94;37.60;101297.22;8373541;28;20553;-63
2022/06/17 10:43:39;;;;;;;0.90;0.80;;;;;;;32.55;38.94;101309.75;8373903;28;20056;-63
2022/06/17 10:52:01;;;;;;;0.90;0.80;;;;;;;32.17;40.18;101302.31;8399272;27;20393;-63
2022/06/17 10:56:09;;;;;;;1.63;0.90;;;;;;;31.91;40.61;101305.94;8405379;28;20524;-63
2022/06/17 11:00:26;;;;;;;2.50;0.90;;;;;;;31.02;41.41;101302.66;8406595;28;20551;-63
2022/06/17 11:04:34;;;;;;;3.88;0.90;;;;;;;31.63;42.38;101296.88;8406139;28;20701;-63
2022/06/17 11:08:50;;;;;;;1.52;0.90;;;;;;;31.71;41.25;101285.25;8405900;28;20048;-63
2022/06/17 11:13:01;;;;;;;3.08;0.88;;;;;;;33.20;40.16;101285.06;8397486;28;20548;-63
2022/06/17 11:17:11;;;;;;;3.85;1.20;;;;;;;32.47;40.37;101287.81;8374147;28;20490;-63
2022/06/17 11:21:24;;;;;;;2.72;0.98;;;;;;;34.18;38.99;101280.50;8385390;28;20037;-63
2022/06/17 11:25:33;;;;;;;3.45;1.02;;;;;;;33.89;39.84;101278.19;8363758;28;20281;-63
2022/06/17 11:29:41;;;;;;;2.08;0.98;;;;;;;34.27;37.59;101287.25;8363682;28;20041;-63
2022/06/17 11:38:13;;;;;;;1.17;0.95;;;;;;;33.69;38.72;101244.38;8379824;27;20390;-63
2022/06/17 11:42:18;;;;;;;2.08;1.00;;;;;;;33.10;39.55;101237.34;8369094;28;20634;-63
2022/06/17 11:46:23;;;;;;;2.63;0.90;;;;;;;33.12;41.54;101229.53;8369303;28;20552;-63
2022/06/17 11:50:30;;;;;;;3.10;0.80;;;;;;;32.79;40.38;101223.38;8368814;28;20067;-63
2022/06/17 11:54:36;;;;;;;2.78;1.00;;;;;;;34.19;39.62;101220.38;8364725;28;20041;-63
2022/06/17 11:58:53;;;;;;;1.25;0.70;;;;;;;34.71;38.83;101226.59;8371287;28;20056;-63
2022/06/17 12:02:58;;;;;;;3.72;1.08;;;;;;;34.62;38.56;101222.69;8376406;28;20972;-63
2022/06/17 12:06:58;;;;;;;2.75;1.10;;;;;;;34.36;39.03;101210.59;8375832;28;20064;-63
2022/06/17 12:11:05;;;;;;;4.73;1.00;;;;;;;33.86;39.89;101200.09;8377352;28;20037;-63
2022/06/17 12:15:17;;;;;;;3.97;1.02;;;;;;;32.32;43.63;101198.03;8379318;28;20762;-63
2022/06/17 12:19:20;;;;;;;1.77;0.90;;;;;;;31.07;43.14;101193.78;8377080;28;20068;-63
2022/06/17 12:23:30;;;;;;;1.60;1.30;;;;;;;30.66;44.23;101191.44;8379257;28;22795;-63
2022/06/17 12:27:40;;;;;;;2.85;1.00;;;;;;;30.24;44.67;101183.53;8379285;28;20048;-64
2022/06/17 12:31:48;;;;;;;2.53;1.23;;;;;;;29.97;46.11;101188.03;8376065;28;20465;-64
2022/06/17 12:36:01;;;;;;;2.92;1.02;;;;;;;29.92;44.64;101184.31;8378372;28;20405;-63
2022/06/17 12:40:08;;;;;;;3.55;0.98;;;;;;;29.92;45.43;101182.34;8376277;28;20036;-63
2022/06/17 12:44:48;;;;;;;2.75;0.95;;;;;;;29.40;44.78;101175.16;8377117;28;20119;-63
2022/06/17 12:53:57;;;;;;;2.78;0.93;;;;;;;30.01;45.19;101172.47;8354605;28;20033;-63
2022/06/17 12:58:25;;;;;;;2.60;1.10;;;;;;;30.17;44.03;101157.72;8351806;28;20049;-63
2022/06/17 13:07:44;;;;;;;0.80;0.70;;;;;;;30.78;43.81;101139.16;8319904;27;20404;-63
2022/06/17 13:12:02;;;;;;;4.57;1.33;;;;;;;30.82;43.24;101134.75;8313541;28;20045;-64
2022/06/17 13:16:10;;;;;;;3.33;0.98;;;;;;;30.51;43.35;101127.00;8344753;28;20413;-64
2022/06/17 13:24:50;;;;;;;4.40;1.20;;;;;;;30.91;41.71;101116.44;8391427;27;21155;-63
2022/06/17 13:29:16;;;;;;;2.30;1.13;;;;;;;30.37;43.54;101110.63;8389299;28;20132;-63
2022/06/17 13:33:42;;;;;;;1.35;0.90;;;;;;;30.52;42.71;101104.41;8362373;28;20142;-63
2022/06/17 13:42:19;;;;;;;1.75;0.80;;;;;;;30.30;42.94;101115.53;8335071;27;20435;-63
2022/06/17 13:46:38;;;;;;;3.17;1.23;;;;;;;30.50;41.59;101100.19;8328851;28;20445;-63
2022/06/17 13:51:06;;;;;;;4.13;0.88;;;;;;;30.33;42.54;101098.28;8332329;28;20082;-63
2022/06/17 13:55:38;;;;;;;3.55;0.90;;;;;;;30.33;43.06;101087.13;8328733;28;20093;-63
2022/06/17 13:59:43;;;;;;;1.10;0.80;;;;;;;30.46;42.45;101076.69;8330304;28;20057;-63
2022/06/17 14:04:06;;;;;;;5.35;0.98;;;;;;;30.59;42.59;101073.53;8322092;28;20556;-63
2022/06/17 14:08:08;;;;;;;;;;;;;;;30.70;42.69;101069.78;8338389;28;20516;-63
2022/06/17 14:12:46;;;;;;;2.65;1.23;;;;;;;30.85;42.48;101073.63;8333147;28;19947;-63
2022/06/17 14:17:16;;;;;;;1.88;0.85;;;;;;;30.85;41.80;101083.94;8311466;28;20187;-63
2022/06/17 14:21:22;;;;;;;2.90;0.60;;;;;;;31.45;41.24;101081.91;8329440;28;20060;-63
2022/06/17 14:25:27;;;;;;;1.58;0.70;;;;;;;31.32;40.04;101079.53;8331911;28;20045;-63
2022/06/17 14:29:30;;;;;;;1.92;0.70;;;;;;;31.27;40.18;101076.63;8319494;28;20037;-63
2022/06/17 14:33:57;;;;;;;2.40;0.70;;;;;;;31.26;39.73;101080.56;8333692;28;20156;-63
2022/06/17 14:38:21;;;;;;;2.28;0.77;;;;;;;31.10;39.40;101071.13;8323385;28;20038;-63
2022/06/17 14:42:30;;;;;;;2.53;0.70;;;;;;;31.07;40.59;101065.25;8312944;28;20429;-63
2022/06/17 14:47:10;;;;;;;0.88;0.80;;;;;;;31.58;40.47;101062.75;8326799;28;20029;-63
2022/06/17 14:55:34;;;;;;;1.60;1.00;;;;;;;31.39;39.40;101052.22;8400442;27;20389;-63
2022/06/17 14:59:36;;;;;;;3.10;0.70;;;;;;;31.45;40.79;101053.94;8382401;28;20544;-63
2022/06/17 15:03:40;;;;;;;4.15;0.90;;;;;;;31.68;40.55;101045.22;8378980;28;20133;-63
2022/06/17 15:07:47;;;;;;;1.58;0.82;;;;;;;31.80;40.52;101054.25;8387985;28;20061;-63
2022/06/17 15:11:53;;;;;;;2.95;0.70;;;;;;;32.01;39.49;101039.34;8381400;28;20070;-63
2022/06/17 15:15:56;;;;;;;2.55;0.88;;;;;;;31.81;40.19;101031.66;8386026;28;20045;-63
2022/06/17 15:19:57;;;;;;;9.23;1.30;;;;;;;31.64;40.35;101041.25;8383557;28;20060;-63
2022/06/17 15:24:37;;;;;;;2.50;0.80;;;;;;;31.65;40.40;101028.97;8368611;28;20055;-63
2022/06/17 15:28:45;;;;;;;2.45;0.82;;;;;;;31.61;39.85;101022.22;8363895;28;20048;-63
2022/06/17 15:32:49;;;;;;;2.08;0.90;;;;;;;31.59;40.54;101021.66;8361281;28;20573;-63
2022/06/17 15:36:53;;;;;;;1.50;0.75;;;;;;;31.88;39.57;101018.28;8370712;28;20040;-63
2022/06/17 15:41:30;;;;;;;1.35;0.80;;;;;;;31.68;39.70;101011.66;8363702;28;20537;-63
2022/06/17 15:45:32;;;;;;;2.83;0.80;;;;;;;31.64;39.22;100999.31;8364505;28;20041;-63
2022/06/17 15:49:38;;;;;;;2.35;0.93;;;;;;;31.46;40.97;100992.16;8352570;28;20545;-63
2022/06/17 15:53:40;;;;;;;1.35;0.75;;;;;;;31.38;41.42;101000.22;8354051;28;20048;-63
2022/06/17 15:57:56;;;;;;;2.30;0.75;;;;;;;31.22;42.06;100989.97;8359488;28;20037;-63
2022/06/17 16:02:01;;;;;;;2.47;0.82;;;;;;;31.24;41.06;100994.16;8344024;28;20332;-63
2022/06/17 16:06:05;;;;;;;1.33;0.70;;;;;;;31.20;42.14;100987.44;8326128;28;20056;-63
2022/06/17 16:10:18;;;;;;;2.35;0.90;;;;;;;31.66;41.03;100991.50;8297806;28;20059;-63
2022/06/17 16:14:35;;;;;;;4.10;0.90;;;;;;;32.04;41.13;101000.50;8312970;28;20041;-63
2022/06/17 16:18:39;;;;;;;3.05;1.02;;;;;;;31.80;41.05;100992.72;8303317;28;20066;-63
2022/06/17 16:22:41;;;;;;;2.40;0.82;;;;;;;31.65;41.43;100989.81;8296579;28;20038;-63
2022/06/17 16:26:48;;;;;;;1.23;0.90;;;;;;;31.67;41.82;100982.00;8308082;28;20065;-63
2022/06/17 16:30:54;;;;;;;3.00;0.60;;;;;;;31.73;40.87;100969.72;8300956;28;20609;-63
2022/06/17 16:34:55;;;;;;;1.67;0.73;;;;;;;31.63;41.68;100969.66;8295696;28;20414;-63
2022/06/17 16:38:58;;;;;;;4.75;1.13;;;;;;;31.61;41.51;100969.06;8301556;28;20065;-63
2022/06/17 16:44:00;;;;;;;2.43;1.20;;;;;;;31.54;41.10;100960.09;8290721;28;20038;-63
2022/06/17 16:47:20;;;;;;;2.17;0.80;;;;;;;31.48;41.50;100961.16;8298238;28;20360;-63
2022/06/17 16:51:21;;;;;;;1.70;0.67;;;;;;;31.47;42.12;100960.28;8302484;28;20048;-63
2022/06/17 16:55:24;;;;;;;2.67;1.17;;;;;;;31.45;41.82;100956.09;8290071;28;20101;-63
2022/06/17 16:59:25;;;;;;;3.45;1.08;;;;;;;31.55;41.75;100951.44;8290179;28;20049;-63
2022/06/17 17:03:26;;;;;;;3.78;0.70;;;;;;;31.50;41.10;100954.16;8300848;28;20233;-63
2022/06/17 17:07:26;;;;;;;3.40;1.00;;;;;;;31.32;44.72;100953.75;8295137;28;20042;-62
2022/06/17 17:11:27;;;;;;;1.33;0.75;;;;;;;31.39;42.00;100951.56;8297082;28;20034;-63
2022/06/17 17:15:27;;;;;;;4.03;0.70;;;;;;;31.41;42.65;100949.34;8305266;28;20037;-63
2022/06/17 17:19:30;;;;;;;3.03;0.70;;;;;;;31.40;41.78;100956.03;8304254;28;20270;-63
2022/06/17 17:23:35;;;;;;;2.13;0.70;;;;;;;31.50;41.64;100947.75;8306644;28;20116;-63
2022/06/17 17:27:35;;;;;;;1.17;0.60;;;;;;;31.40;42.48;100953.25;8295350;28;20533;-63
2022/06/17 17:31:36;;;;;;;2.23;0.60;;;;;;;31.31;42.34;100954.84;8306984;28;20473;-63
2022/06/17 17:35:37;;;;;;;3.65;0.75;;;;;;;31.09;45.08;100951.25;8293902;28;20045;-63
2022/06/17 17:39:38;;;;;;;1.35;0.70;;;;;;;31.19;44.25;100952.19;8305863;28;20157;-63
2022/06/17 17:43:39;;;;;;;1.88;0.70;;;;;;;31.21;41.76;100957.50;8291852;28;20033;-63
2022/06/17 17:47:40;;;;;;;2.47;0.70;;;;;;;31.20;42.27;100959.50;8287930;28;20041;-63
2022/06/17 17:51:40;;;;;;;3.13;1.00;;;;;;;31.03;44.22;100952.31;8299893;28;20034;-63
2022/06/17 17:55:41;;;;;;;3.03;0.90;;;;;;;30.82;45.83;100950.41;8295049;28;20545;-63
2022/06/17 17:59:43;;;;;;;4.13;1.13;;;;;;;30.74;46.25;100953.69;8295628;28;20042;-63
2022/06/17 18:03:43;;;;;;;1.60;0.90;;;;;;;30.52;45.34;100936.91;8297203;28;20046;-63
2022/06/17 18:07:43;;;;;;;1.00;0.87;;;;;;;30.62;43.54;100941.78;8287794;28;20056;-63
2022/06/17 18:11:48;;;;;;;2.40;0.90;;;;;;;30.38;49.69;100939.25;8292125;28;20303;-63
2022/06/17 18:15:50;;;;;;;1.92;0.77;;;;;;;29.78;55.12;100943.97;8305895;28;20736;-63
2022/06/17 18:19:50;;;;;;;1.85;0.90;;;;;;;29.26;54.50;100939.75;8311712;28;20084;-63
2022/06/17 18:23:51;;;;;;;4.43;1.00;;;;;;;29.40;50.44;100941.06;8316216;28;20053;-63
2022/06/17 18:27:54;;;;;;;4.80;0.80;;;;;;;29.53;49.21;100935.19;8290963;28;20279;-63
2022/06/17 18:31:54;;;;;;;3.75;1.15;;;;;;;29.52;48.89;100944.63;8303475;28;20029;-63
2022/06/17 18:35:55;;;;;;;3.17;1.10;;;;;;;29.53;48.63;100935.19;8300190;28;20038;-63
2022/06/17 18:39:55;;;;;;;2.13;0.95;;;;;;;29.46;50.30;100934.50;8283368;28;20049;-63
2022/06/17 18:43:57;;;;;;;2.28;1.02;;;;;;;29.40;50.99;100927.16;8310971;28;20096;-63
2022/06/17 18:48:00;;;;;;;2.10;1.05;;;;;;;29.17;51.06;100932.88;8314789;28;20041;-63
2022/06/17 18:52:00;;;;;;;3.30;0.80;;;;;;;28.64;54.32;100929.66;8306104;28;20068;-63
2022/06/17 18:56:01;;;;;;;1.65;0.93;;;;;;;28.78;52.70;100924.63;8334978;28;20260;-63
2022/06/17 19:00:03;;;;;;;4.30;1.13;;;;;;;28.28;58.79;100925.28;8315832;28;20048;-63
2022/06/17 19:04:04;;;;;;;2.58;1.15;;;;;;;28.33;52.31;100911.44;8285859;28;20316;-63
2022/06/17 19:17:54;;;;;;;1.77;0.90;;;;;;;27.91;55.43;100911.91;8289211;28;20100;-62
2022/06/17 19:21:15;;;;;;;2.70;1.25;;;;;;;27.06;61.67;100934.75;8292103;28;20646;-62
2022/06/17 19:25:18;;;;;;;2.53;1.35;;;;;;;26.61;62.60;100929.66;8287408;28;20495;-62
2022/06/17 19:29:22;;;;;;;3.90;1.10;;;;;;;26.51;63.44;100931.28;8304544;28;20037;-62
2022/06/17 19:33:27;;;;;;;1.58;1.00;;;;;;;26.54;63.37;100926.13;8297726;28;20399;-62
2022/06/17 19:37:28;;;;;;;5.50;1.50;;;;;;;27.12;59.73;100936.59;8285951;28;20038;-62
2022/06/17 19:41:43;;;;;;;1.60;1.13;;;;;;;27.33;60.34;100938.84;8295520;28;20053;-62
2022/06/17 19:45:47;;;;;;;2.58;1.20;;;;;;;26.56;65.40;100946.13;8291014;28;20046;-62
2022/06/17 19:49:50;;;;;;;2.70;1.08;;;;;;;25.89;67.54;100948.25;8296751;28;20041;-62
2022/06/17 19:53:51;;;;;;;1.70;1.03;;;;;;;25.52;67.24;100950.09;8319944;28;20528;-62
2022/06/17 19:57:52;;;;;;;2.40;1.58;;;;;;;25.19;68.70;100963.34;8295208;28;20289;-62
2022/06/17 20:01:56;;;;;;;2.58;1.23;;;;;;;25.14;68.73;100960.41;8290497;28;20108;-62
2022/06/17 20:05:57;;;;;;;3.75;1.40;;;;;;;25.07;68.67;100956.84;8300055;28;20057;-62
2022/06/17 20:09:57;;;;;;;3.47;1.47;;;;;;;25.06;68.99;100970.91;8292119;28;20064;-62